Flight Track Log - Related Links

Times and Time Zones

All times are in EDT time to prevent confusion due to time zone crossing. See the SWA3943 flight status page for this flight to view local times or setup timezone preferences in your user account.

Time Position Orientation Groundspeed Altitude Reporting Facility
EDT Latitude Longitude Course Direction KTS MPH feet Rate Location/Type
Mon 08:43:02 PM 40.0008 -82.9467 279° West 192 221 3,300  Level Indianapolis Center
Mon 08:43:19 PM 40.0019 -82.9808 272° West 220 253 4,100 1,645 Climbing Indianapolis Center
Mon 08:44:04 PM 39.9747 -83.0017 210° Southwest 208 239 5,000 2,604 Climbing Indianapolis Center
Mon 08:45:05 PM 39.9308 -82.9172 124° Southeast 286 329 8,700 3,463 Climbing Indianapolis Center
Mon 08:46:07 PM 39.9286 -82.7986 91° East 324 373 12,100 3,659 Climbing Indianapolis Center
Mon 08:47:08 PM 39.9375 -82.6611 85° East 372 428 16,200 4,049 Climbing Indianapolis Center
Mon 08:48:10 PM 39.9444 -82.5164 86° East 393 452 20,400 3,756 Climbing Indianapolis Center
Mon 08:49:11 PM 39.9514 -82.3694 86° East 401 461 23,900 3,024 Climbing Indianapolis Center
Mon 08:50:13 PM 39.9589 -82.2092 86° East 434 499 26,600 2,439 Climbing Indianapolis Center
Mon 08:51:14 PM 39.9672 -82.0414 86° East 457 526 28,900 1,171 Climbing Indianapolis Center
Mon 08:52:16 PM 39.9747 -81.8600 87° East 492 566 29,000 49 Climbing Indianapolis Center
Mon 08:53:17 PM 39.9558 -81.6775 98° East 504 580 29,000  Level Indianapolis Center
Mon 08:54:18 PM 39.9378 -81.4939 97° East 506 582 29,000  Level Indianapolis Center
Mon 08:55:20 PM 39.9192 -81.3106 97° East 506 582 29,000  Level Indianapolis Center
Mon 08:56:21 PM 39.8992 -81.1275 98° East 507 583 29,000  Level Indianapolis Center
Mon 08:57:15 PM 39.8831 -80.9592 97° East 501 577 29,000  Level Cleveland Center
Mon 08:58:15 PM 39.8628 -80.7750 98° East 501 577 29,000  Level Cleveland Center
Mon 08:59:15 PM 39.8442 -80.5911 97° East 501 577 29,000  Level Cleveland Center
Mon 09:01:26 PM 39.7964 -80.2017 99° East 518 596 29,000  Level Washington Center
Mon 09:02:27 PM 39.7761 -80.0222 98° East 507 583 29,000  Level Washington Center
Mon 09:03:26 PM 39.7556 -79.8428 98° East 502 578 29,000  Level Washington Center
Mon 09:04:27 PM 39.7311 -79.6442 99° East 502 578 29,000  Level Washington Center
Mon 09:05:26 PM 39.7097 -79.4678 99° East 502 578 29,000 -50 Level Washington Center
Mon 09:06:26 PM 39.6883 -79.2911 99° East 502 578 28,900 -1,850 Descending Washington Center
Mon 09:07:26 PM 39.6664 -79.1150 99° East 502 578 25,300 -1,950 Descending Washington Center
Mon 09:08:26 PM 39.6358 -78.9489 103° East 483 556 25,000 -150 Descending Washington Center
Mon 09:09:26 PM 39.5958 -78.8044 110° East 478 550 25,000 -300 Level Washington Center
Mon 09:10:26 PM 39.5606 -78.6414 106° East 473 544 24,400 -1,750 Descending Washington Center
Mon 09:11:26 PM 39.5247 -78.4836 106° East 467 537 21,500 -2,800 Descending Washington Center
Mon 09:12:26 PM 39.4892 -78.3183 106° East 450 518 18,800 -2,850 Descending Washington Center
Mon 09:13:26 PM 39.4589 -78.1775 106° East 424 488 15,800 -1,900 Descending Washington Center
Mon 09:14:26 PM 39.4264 -78.0364 107° East 413 475 15,000 -400 Descending Washington Center
Mon 09:15:26 PM 39.4103 -77.8964 98° East 402 463 15,000  Level Washington Center
Mon 09:16:26 PM 39.4214 -77.7542 84° East 389 448 15,000 -450 Level Washington Center
Mon 09:17:26 PM 39.4319 -77.6147 84° East 384 442 14,100 -1,650 Descending Washington Center
Mon 09:18:26 PM 39.4406 -77.4806 85° East 384 442 11,700 -1,550 Descending Washington Center
Mon 09:19:26 PM 39.4464 -77.3625 86° East 359 413 11,000 -416 Descending Washington Center
Mon 09:20:07 PM 39.4500 -77.2833 87° East 307 353 11,000 -653 Level Potomac TRACON
Mon 09:21:07 PM 39.4667 -77.1833 78° East 302 348 9,900 -1,350 Descending Potomac TRACON
Mon 09:22:07 PM 39.4667 -77.0833 90° East 294 338 8,300 -1,600 Descending Potomac TRACON
Mon 09:23:07 PM 39.4500 -76.9833 102° East 281 323 6,700 -1,650 Descending Potomac TRACON
Mon 09:24:07 PM 39.4000 -76.9167 134° Southeast 263 303 5,000 -1,650 Descending Potomac TRACON
Mon 09:25:07 PM 39.3333 -76.9167 180° South 231 266 3,400 -1,000 Descending Potomac TRACON
Mon 09:26:07 PM 39.2667 -76.9000 169° South 197 227 3,000 -400 Descending Potomac TRACON
Mon 09:27:07 PM 39.2333 -76.9000 180° South 159 183 2,600 -263 Descending Potomac TRACON
Mon 09:28:01 PM 39.2000 -76.8667 142° Southeast 156 180 2,500 -316 Descending Potomac TRACON
Mon 09:29:01 PM 39.1833 -76.8167 113° Southeast 160 184 2,000 -650 Descending Potomac TRACON
Mon 09:30:01 PM 39.1833 -76.7500 90° East 150 173 1,200 -762 Descending Potomac TRACON
Mon 09:31:07 PM 39.1833 -76.7000 90° East 122 140 400 -727 Descending Potomac TRACON
Mon 09:33:00 PM 39.1667 -76.6667 98° East  Level FlightAware Approximate
Mon 09:40:00 PM 39.1754 -76.6683 98° East  Level Estimated
Mon 09:41:00 PM 39.1754 -76.6683 98° East  Level Estimated

Login

Don't have an account? Register now (free) for customized features, flight alerts, and more!